Time;durP1;ratioP1;P1;durP2;ratioP2;P2;SDS_P1;SDS_P2;PMS_P1;PMS_P2;Temp;Humidity;BMP_temperature;BMP_pressure;BME280_temperature;BME280_humidity;BME280_pressure;Samples;Min_cycle;Max_cycle;Signal;HPM_P1;HPM_P2
2021/09/29 00:00:52;;;;;;;10.10;2.80;;;;;;;16.69;57.52;101441.84;5110493;28;20132;-65
2021/09/29 00:03:19;;;;;;;9.13;2.50;;;;;;;16.59;57.59;101439.13;5107696;28;20040;-63
2021/09/29 00:05:46;;;;;;;6.00;2.73;;;;;;;16.62;57.52;101449.81;5110475;28;20043;-64
2021/09/29 00:08:13;;;;;;;8.07;2.83;;;;;;;16.65;57.59;101454.00;5092671;28;20581;-64
2021/09/29 00:10:41;;;;;;;14.43;2.70;;;;;;;16.56;57.68;101439.72;5095515;28;20135;-63
2021/09/29 00:13:09;;;;;;;9.23;3.00;;;;;;;16.56;57.53;101445.38;5106741;27;20044;-62
2021/09/29 00:15:36;;;;;;;4.90;2.87;;;;;;;16.57;57.96;101463.97;5114044;28;20134;-63
2021/09/29 00:18:03;;;;;;;4.20;2.80;;;;;;;16.46;58.01;101446.31;5113033;28;20039;-64
2021/09/29 00:20:31;;;;;;;11.45;4.00;;;;;;;16.43;57.89;101457.34;5109686;27;20084;-61
2021/09/29 00:22:58;;;;;;;12.80;4.73;;;;;;;16.50;57.99;101463.47;5099612;28;20126;-64
2021/09/29 00:25:24;;;;;;;7.63;3.03;;;;;;;16.39;58.01;101461.91;5112673;28;20075;-60
2021/09/29 00:27:51;;;;;;;12.20;3.80;;;;;;;16.49;58.19;101476.75;5114898;28;20483;-63
2021/09/29 00:30:19;;;;;;;10.47;3.10;;;;;;;16.32;58.20;101446.19;5106200;28;20078;-62
2021/09/29 00:32:46;;;;;;;7.70;3.00;;;;;;;16.33;58.25;101461.94;5104141;28;20135;-62
2021/09/29 00:35:14;;;;;;;7.97;3.23;;;;;;;16.33;58.22;101455.47;5109155;27;20169;-61
2021/09/29 00:37:42;;;;;;;10.10;2.93;;;;;;;16.28;58.16;101455.53;5106925;28;20135;-63
2021/09/29 00:40:10;;;;;;;8.73;2.70;;;;;;;16.30;58.29;101456.91;5101024;28;20487;-67
2021/09/29 00:42:37;;;;;;;10.10;3.20;;;;;;;16.24;58.38;101448.78;5107819;28;20044;-64
2021/09/29 00:45:05;;;;;;;5.67;2.37;;;;;;;16.32;58.46;101463.09;5101311;28;20076;-65
2021/09/29 00:47:32;;;;;;;8.43;2.73;;;;;;;16.28;58.58;101464.84;5099393;28;20040;-64
2021/09/29 00:50:00;;;;;;;7.67;2.17;;;;;;;16.24;58.31;101463.75;5092658;28;20075;-64
2021/09/29 00:52:27;;;;;;;6.20;2.10;;;;;;;16.19;58.63;101449.69;5092001;28;20466;-68
2021/09/29 00:54:55;;;;;;;4.30;2.23;;;;;;;16.20;58.52;101442.91;5107759;28;20462;-68
2021/09/29 00:57:22;;;;;;;5.00;2.13;;;;;;;16.29;58.32;101462.84;5075703;28;20116;-65
2021/09/29 00:59:49;;;;;;;4.57;2.20;;;;;;;16.28;58.62;101449.91;5093323;28;20076;-64
2021/09/29 01:02:19;;;;;;;6.03;2.20;;;;;;;16.21;58.66;101438.97;5094894;28;20043;-65
2021/09/29 01:04:48;;;;;;;6.27;2.67;;;;;;;16.23;58.83;101433.88;5099264;28;20546;-70
2021/09/29 01:07:36;;;;;;;7.37;2.97;;;;;;;16.28;58.23;101449.91;5091788;28;20380;-70
2021/09/29 01:10:17;;;;;;;6.40;2.20;;;;;;;16.22;58.62;101463.19;5104063;27;20048;-67
2021/09/29 01:13:06;;;;;;;8.27;2.10;;;;;;;16.18;58.78;101450.00;5106179;28;20071;-70
2021/09/29 01:15:48;;;;;;;4.93;1.83;;;;;;;16.19;58.84;101446.88;5095913;28;20500;-69
2021/09/29 01:18:20;;;;;;;4.97;2.00;;;;;;;16.18;58.71;101447.19;5108205;27;20048;-63
2021/09/29 01:20:57;;;;;;;6.30;2.10;;;;;;;16.17;58.77;101443.53;5099220;27;20506;-64
2021/09/29 01:23:52;;;;;;;4.90;2.10;;;;;;;16.20;58.71;101433.63;5112685;27;20085;-64
2021/09/29 01:26:25;;;;;;;3.83;1.80;;;;;;;16.15;58.79;101422.41;5095308;28;20091;-66
2021/09/29 01:28:56;;;;;;;4.07;1.57;;;;;;;16.22;58.52;101434.16;5102525;28;20127;-66
2021/09/29 01:31:24;;;;;;;4.17;1.47;;;;;;;16.23;58.58;101433.88;5092756;28;20079;-63
2021/09/29 01:33:53;;;;;;;5.27;1.60;;;;;;;16.19;58.79;101421.50;5093111;28;20523;-62
2021/09/29 01:36:21;;;;;;;3.73;2.33;;;;;;;16.12;59.00;101415.38;5101746;28;20077;-65
2021/09/29 01:38:54;;;;;;;6.47;1.20;;;;;;;16.13;58.80;101439.59;5084595;28;20040;-62
2021/09/29 01:41:24;;;;;;;8.30;1.80;;;;;;;16.10;58.86;101445.81;5108287;28;20040;-62
2021/09/29 01:43:52;;;;;;;5.38;1.83;;;;;;;15.87;58.97;101410.84;5100445;28;20044;-65
2021/09/29 01:46:20;;;;;;;7.40;1.70;;;;;;;15.98;59.33;101429.31;5100622;28;20744;-64
2021/09/29 01:49:06;;;;;;;8.43;3.13;;;;;;;15.92;59.17;101429.66;5101161;28;20054;-67
2021/09/29 01:51:37;;;;;;;6.27;1.70;;;;;;;15.88;59.49;101430.25;5100023;28;20160;-65
2021/09/29 01:54:06;;;;;;;7.77;2.07;;;;;;;15.79;59.36;101417.09;5105515;28;20067;-64
2021/09/29 01:56:34;;;;;;;5.40;2.22;;;;;;;15.84;59.69;101426.34;5096210;28;20086;-63
2021/09/29 01:59:03;;;;;;;5.53;1.70;;;;;;;15.79;59.76;101432.00;5096991;28;20039;-65
2021/09/29 02:01:37;;;;;;;4.53;1.73;;;;;;;15.74;59.59;101434.88;5101424;28;20085;-63
2021/09/29 02:04:06;;;;;;;6.17;1.93;;;;;;;15.70;59.76;101422.53;5086421;28;20598;-68
2021/09/29 02:06:54;;;;;;;8.10;2.33;;;;;;;15.66;59.78;101429.88;5093270;28;20135;-67
2021/09/29 02:09:23;;;;;;;8.57;2.47;;;;;;;15.56;60.21;101411.06;5098587;28;20079;-67
2021/09/29 02:11:51;;;;;;;5.63;2.00;;;;;;;15.63;60.11;101431.28;5098119;28;20222;-66
2021/09/29 02:14:20;;;;;;;3.03;1.87;;;;;;;15.62;60.22;101428.75;5095829;28;20131;-66
2021/09/29 02:16:49;;;;;;;4.82;2.47;;;;;;;15.64;60.05;101434.94;5109135;28;20126;-67
2021/09/29 02:19:17;;;;;;;3.97;1.87;;;;;;;15.66;60.14;101429.88;5108531;28;20130;-69
2021/09/29 02:21:45;;;;;;;6.40;2.23;;;;;;;15.56;60.16;101418.69;5105179;28;20075;-70
2021/09/29 02:24:12;;;;;;;3.07;2.10;;;;;;;15.64;60.02;101423.66;5093783;28;20119;-71
2021/09/29 02:26:39;;;;;;;5.47;2.97;;;;;;;15.63;60.18;101430.44;5093074;28;20147;-70
2021/09/29 02:29:07;;;;;;;10.57;3.30;;;;;;;15.69;60.00;101434.94;5103643;27;20131;-70
2021/09/29 02:31:35;;;;;;;8.37;2.10;;;;;;;15.69;60.14;101434.06;5102201;28;20521;-67
2021/09/29 02:34:03;;;;;;;5.57;3.03;;;;;;;15.69;60.21;101432.13;5103831;28;20151;-69
2021/09/29 02:36:30;;;;;;;4.87;2.33;;;;;;;15.68;60.26;101436.06;5102662;28;20094;-66
2021/09/29 02:38:57;;;;;;;3.93;1.70;;;;;;;15.65;60.25;101426.16;5094764;28;20178;-66
2021/09/29 02:41:24;;;;;;;10.87;2.87;;;;;;;15.67;60.23;101433.53;5090265;28;20135;-66
2021/09/29 02:43:51;;;;;;;5.03;1.60;;;;;;;15.56;60.22;101413.03;5098542;28;20071;-66
2021/09/29 02:46:19;;;;;;;5.87;1.90;;;;;;;15.58;60.28;101414.41;5100580;28;20143;-66
2021/09/29 02:48:45;;;;;;;8.07;2.10;;;;;;;15.67;60.10;101411.00;5099406;28;20046;-72
2021/09/29 02:51:12;;;;;;;5.27;2.33;;;;;;;15.74;59.97;101426.44;5095169;28;20690;-74
2021/09/29 02:53:39;;;;;;;7.23;1.80;;;;;;;15.70;60.02;101408.44;5094814;28;20461;-73
2021/09/29 02:56:06;;;;;;;7.97;2.37;;;;;;;15.82;60.04;101425.78;5103105;28;20082;-73
2021/09/29 02:58:33;;;;;;;3.77;1.83;;;;;;;15.80;59.92;101415.97;5103346;28;20076;-74
2021/09/29 03:01:00;;;;;;;4.33;1.60;;;;;;;15.89;59.85;101425.44;5102386;28;20126;-71
2021/09/29 03:03:28;;;;;;;4.60;1.70;;;;;;;15.78;59.75;101402.19;5099141;28;20075;-73
2021/09/29 03:05:55;;;;;;;2.80;1.43;;;;;;;15.95;59.47;101421.47;5104229;28;20578;-72
2021/09/29 03:08:22;;;;;;;6.30;1.80;;;;;;;15.91;59.65;101423.19;5096156;28;20079;-71
2021/09/29 03:10:49;;;;;;;4.37;1.80;;;;;;;15.97;59.70;101426.81;5098781;28;20518;-69
2021/09/29 03:13:15;;;;;;;6.17;1.83;;;;;;;15.92;59.60;101426.84;5106366;28;20126;-67
2021/09/29 03:15:42;;;;;;;6.80;1.80;;;;;;;15.84;59.81;101428.31;5102903;28;20115;-68
2021/09/29 03:18:09;;;;;;;8.83;2.90;;;;;;;15.90;59.88;101434.75;5105021;28;20555;-68
2021/09/29 03:20:36;;;;;;;3.40;1.83;;;;;;;15.94;59.81;101433.03;5099207;28;20075;-69
2021/09/29 03:23:03;;;;;;;11.27;2.17;;;;;;;15.98;59.80;101434.97;5108719;28;20127;-69
2021/09/29 03:25:30;;;;;;;4.40;2.10;;;;;;;16.00;59.97;101431.81;5104114;28;20135;-71
2021/09/29 03:27:57;;;;;;;7.50;2.57;;;;;;;16.00;59.43;101431.81;5099266;28;20044;-67
2021/09/29 03:30:24;;;;;;;5.93;2.13;;;;;;;15.91;59.62;101419.53;5107009;27;20138;-67
2021/09/29 03:32:51;;;;;;;4.23;2.27;;;;;;;15.97;59.50;101422.00;5112666;28;20821;-67
2021/09/29 03:35:18;;;;;;;5.70;1.80;;;;;;;16.01;59.51;101433.53;5105013;28;20040;-67
2021/09/29 03:37:45;;;;;;;9.37;2.97;;;;;;;16.02;59.50;101435.19;5095637;28;20127;-68
2021/09/29 03:40:14;;;;;;;7.40;3.30;;;;;;;15.85;59.38;101413.09;5098319;28;20459;-66
2021/09/29 03:42:41;;;;;;;7.17;2.50;;;;;;;15.94;59.63;101438.66;5097304;28;20114;-67
2021/09/29 03:45:10;;;;;;;9.57;2.90;;;;;;;15.93;59.69;101442.59;5110119;28;20122;-68
2021/09/29 03:47:37;;;;;;;3.33;1.70;;;;;;;15.85;59.77;101442.09;5095244;28;20566;-68
2021/09/29 03:50:05;;;;;;;3.53;1.80;;;;;;;15.90;59.74;101441.25;5098508;28;20584;-63
2021/09/29 03:52:32;;;;;;;5.40;2.30;;;;;;;15.92;59.51;101443.75;5103256;28;20123;-62
2021/09/29 03:54:58;;;;;;;4.23;1.73;;;;;;;15.77;59.42;101425.84;5103312;28;20453;-63
2021/09/29 03:57:25;;;;;;;5.13;2.50;;;;;;;15.95;59.84;101445.97;5108975;28;20079;-63
2021/09/29 03:59:52;;;;;;;7.30;3.10;;;;;;;15.96;59.49;101450.47;5102068;28;20122;-66
2021/09/29 04:02:19;;;;;;;6.13;2.20;;;;;;;15.95;59.63;101448.78;5095539;28;20090;-64
2021/09/29 04:04:46;;;;;;;7.80;2.43;;;;;;;15.72;59.66;101425.88;5105637;28;20487;-64
2021/09/29 04:07:13;;;;;;;8.03;2.27;;;;;;;15.85;59.58;101442.09;5097376;28;20079;-64
2021/09/29 04:09:39;;;;;;;6.40;2.30;;;;;;;15.82;60.04;101453.94;5101670;28;20381;-65
2021/09/29 04:12:07;;;;;;;4.67;1.60;;;;;;;15.77;59.95;101447.53;5108255;28;20571;-62
2021/09/29 04:14:34;;;;;;;6.77;2.40;;;;;;;15.66;60.05;101449.59;5097344;28;20048;-62
2021/09/29 04:17:00;;;;;;;9.87;2.23;;;;;;;15.59;60.13;101446.25;5097365;28;20082;-66
2021/09/29 04:19:27;;;;;;;3.33;1.73;;;;;;;15.61;60.40;101452.41;5084112;28;20059;-67
2021/09/29 04:21:54;;;;;;;10.63;2.07;;;;;;;15.55;60.31;101450.75;5115478;27;20135;-65
2021/09/29 04:24:21;;;;;;;6.80;2.03;;;;;;;15.46;60.48;101442.09;5091504;28;20489;-68
2021/09/29 04:26:49;;;;;;;4.53;2.20;;;;;;;15.56;60.35;101460.91;5096836;28;20077;-64
2021/09/29 04:29:16;;;;;;;4.67;1.80;;;;;;;15.47;60.39;101451.38;5097494;28;20448;-64
2021/09/29 04:31:43;;;;;;;4.73;2.10;;;;;;;15.46;60.88;101455.34;5101192;28;20050;-65
2021/09/29 04:34:10;;;;;;;7.17;2.00;;;;;;;15.60;60.63;101464.81;5103816;28;20495;-65
2021/09/29 04:36:36;;;;;;;6.50;1.93;;;;;;;15.69;60.32;101462.22;5111426;28;20067;-63
2021/09/29 04:39:04;;;;;;;4.80;1.90;;;;;;;15.79;60.10;101462.97;5098602;28;20118;-65
2021/09/29 04:41:30;;;;;;;6.30;2.70;;;;;;;15.80;60.00;101461.88;5082056;28;20079;-61
2021/09/29 04:43:58;;;;;;;3.70;1.90;;;;;;;15.61;60.00;101453.25;5104555;28;20126;-68
2021/09/29 04:46:25;;;;;;;6.10;2.83;;;;;;;15.70;60.09;101473.22;5077381;28;20118;-65
2021/09/29 04:48:51;;;;;;;3.97;1.93;;;;;;;15.62;60.44;101479.41;5107706;28;20143;-66
2021/09/29 04:51:18;;;;;;;6.43;1.83;;;;;;;15.52;60.67;101476.66;5099320;28;20094;-63
2021/09/29 04:53:45;;;;;;;7.93;2.10;;;;;;;15.53;60.56;101478.38;5100447;28;20051;-64
2021/09/29 04:56:12;;;;;;;3.73;1.80;;;;;;;15.39;60.98;101473.38;5094668;28;20499;-62
2021/09/29 04:58:39;;;;;;;5.67;2.10;;;;;;;15.44;60.61;101482.94;5095005;28;20123;-63
2021/09/29 05:01:06;;;;;;;4.80;2.03;;;;;;;15.36;60.82;101485.22;5101711;28;20127;-60
2021/09/29 05:03:33;;;;;;;6.70;2.43;;;;;;;15.23;61.14;101468.13;5108291;28;20044;-60
2021/09/29 05:06:00;;;;;;;9.47;2.70;;;;;;;15.19;61.14;101467.03;5099053;28;20209;-61
2021/09/29 05:08:30;;;;;;;8.33;3.10;;;;;;;15.17;61.30;101473.78;5103823;28;20055;-61
2021/09/29 05:11:18;;;;;;;4.05;2.30;;;;;;;15.05;61.17;101464.00;5108074;27;20083;-60
2021/09/29 05:13:45;;;;;;;7.67;3.17;;;;;;;15.10;61.52;101463.97;5093754;28;20131;-65
2021/09/29 05:16:13;;;;;;;7.03;2.27;;;;;;;15.19;61.78;101475.47;5101724;28;20136;-65
2021/09/29 05:18:40;;;;;;;5.07;2.20;;;;;;;15.21;61.69;101464.75;5096801;28;20086;-66
2021/09/29 05:21:06;;;;;;;7.47;2.27;;;;;;;15.28;61.62;101470.91;5101951;28;20142;-66
2021/09/29 05:23:34;;;;;;;8.67;2.50;;;;;;;15.25;61.47;101454.63;5096294;28;20458;-64
2021/09/29 05:26:01;;;;;;;5.30;2.13;;;;;;;15.40;61.55;101471.41;5091141;28;20071;-63
2021/09/29 05:28:32;;;;;;;9.10;1.70;;;;;;;15.40;61.25;101462.97;5094556;28;20479;-66
2021/09/29 05:30:59;;;;;;;5.97;1.57;;;;;;;15.48;61.11;101453.06;5103919;27;20123;-67
2021/09/29 05:33:26;;;;;;;3.67;1.90;;;;;;;15.48;60.99;101462.34;5098754;28;20136;-69
2021/09/29 05:35:53;;;;;;;3.67;1.50;;;;;;;15.54;60.92;101472.44;5095025;28;20044;-65
2021/09/29 05:38:20;;;;;;;7.50;2.53;;;;;;;15.55;61.18;101478.91;5084721;28;20166;-62
2021/09/29 05:40:47;;;;;;;6.37;3.10;;;;;;;15.41;61.35;101459.00;5103783;27;20120;-65
2021/09/29 05:43:14;;;;;;;3.93;1.93;;;;;;;15.36;61.11;101462.72;5091939;28;20114;-60
2021/09/29 05:45:41;;;;;;;6.93;1.97;;;;;;;15.48;61.29;101478.38;5091365;28;20130;-60
2021/09/29 05:48:08;;;;;;;7.13;2.47;;;;;;;15.45;61.12;101481.78;5102598;28;20043;-59
2021/09/29 05:50:35;;;;;;;4.00;1.90;;;;;;;15.41;61.40;101485.19;5092420;28;20511;-60
2021/09/29 05:53:02;;;;;;;5.67;2.43;;;;;;;15.30;61.08;101477.94;5096794;28;20466;-61
2021/09/29 05:55:29;;;;;;;12.00;2.57;;;;;;;15.37;61.41;101486.91;5094589;28;20040;-60
2021/09/29 05:57:56;;;;;;;6.03;2.47;;;;;;;15.33;61.53;101491.44;5097784;28;20179;-60
2021/09/29 06:00:23;;;;;;;5.33;2.40;;;;;;;15.26;61.37;101485.28;5100801;28;20130;-61
2021/09/29 06:02:50;;;;;;;7.77;2.47;;;;;;;15.35;61.35;101508.88;5097326;28;20126;-63
2021/09/29 06:05:18;;;;;;;9.57;2.57;;;;;;;15.35;61.58;101506.06;5097150;28;20044;-61
2021/09/29 06:07:44;;;;;;;6.57;2.27;;;;;;;15.12;61.25;101467.34;5102558;28;20460;-60
2021/09/29 06:10:11;;;;;;;4.33;1.73;;;;;;;15.25;61.50;101502.47;5098687;28;20130;-60
2021/09/29 06:12:39;;;;;;;10.63;2.40;;;;;;;15.02;61.63;101506.78;5100633;27;20048;-60
2021/09/29 06:15:07;;;;;;;7.13;2.17;;;;;;;14.84;62.04;101494.19;5095680;28;20131;-60
2021/09/29 06:17:39;;;;;;;5.53;2.10;;;;;;;14.87;61.88;101497.28;5096577;28;20071;-60
2021/09/29 06:20:07;;;;;;;6.63;1.83;;;;;;;14.80;62.06;101499.53;5103439;28;20076;-59
2021/09/29 06:22:35;;;;;;;4.93;1.67;;;;;;;14.68;62.16;101487.75;5101130;28;20122;-59
2021/09/29 06:25:02;;;;;;;4.03;2.20;;;;;;;14.77;62.09;101502.94;5100576;28;20546;-59
2021/09/29 06:27:29;;;;;;;4.70;2.90;;;;;;;14.80;62.05;101510.78;5093351;28;20048;-60
2021/09/29 06:30:00;;;;;;;4.87;2.77;;;;;;;14.86;62.07;101506.81;5091472;28;20093;-60
2021/09/29 06:32:27;;;;;;;4.97;2.33;;;;;;;14.86;62.29;101508.78;5095829;28;20060;-60
2021/09/29 06:34:54;;;;;;;3.73;2.17;;;;;;;14.84;61.87;101517.53;5096522;28;20142;-60
2021/09/29 06:37:21;;;;;;;5.57;2.97;;;;;;;14.52;62.04;101464.47;5099803;28;20118;-59
2021/09/29 06:39:47;;;;;;;11.10;3.40;;;;;;;14.73;62.01;101510.22;5100745;28;20082;-65
2021/09/29 06:42:15;;;;;;;4.60;2.67;;;;;;;14.63;62.20;101511.13;5085679;28;20139;-56
2021/09/29 06:44:42;;;;;;;5.50;2.40;;;;;;;14.68;62.32;101529.94;5080456;28;20461;-61
2021/09/29 06:47:09;;;;;;;7.10;2.50;;;;;;;14.67;62.42;101529.09;5096764;28;20131;-60
2021/09/29 06:49:36;;;;;;;6.87;2.90;;;;;;;14.57;62.33;101519.84;5096000;28;21975;-60
2021/09/29 06:52:04;;;;;;;7.53;3.20;;;;;;;14.54;62.46;101517.59;5092866;28;20090;-62
2021/09/29 06:54:31;;;;;;;9.70;3.20;;;;;;;14.54;62.65;101528.84;5108049;28;20082;-62
2021/09/29 06:56:58;;;;;;;5.93;2.80;;;;;;;14.54;62.76;101548.50;5111346;28;20055;-61
2021/09/29 06:59:25;;;;;;;5.83;3.10;;;;;;;14.55;62.97;101538.94;5118969;27;20071;-62
2021/09/29 07:01:51;;;;;;;6.13;3.20;;;;;;;14.59;62.92;101538.09;5111155;28;20139;-62
2021/09/29 07:04:18;;;;;;;7.27;3.10;;;;;;;14.67;62.95;101539.50;5087334;28;20369;-63
2021/09/29 07:06:45;;;;;;;8.10;3.37;;;;;;;14.77;62.84;101547.91;5094676;28;20470;-63
2021/09/29 07:09:12;;;;;;;6.90;4.07;;;;;;;14.76;62.80;101525.69;5097211;28;20152;-63
2021/09/29 07:11:39;;;;;;;8.50;4.00;;;;;;;15.03;62.61;101556.28;5114033;28;20079;-63
2021/09/29 07:14:06;;;;;;;14.87;6.00;;;;;;;15.16;62.56;101559.31;5097109;28;20078;-62
2021/09/29 07:16:32;;;;;;;13.30;5.87;;;;;;;15.32;62.45;101557.28;5097780;28;20082;-62
2021/09/29 07:19:03;;;;;;;6.83;4.53;;;;;;;15.46;61.87;101557.50;5100339;28;20044;-62
2021/09/29 07:21:30;;;;;;;11.83;5.17;;;;;;;15.58;61.73;101571.22;5118929;27;20130;-62
2021/09/29 07:23:57;;;;;;;16.60;6.67;;;;;;;15.47;61.93;101530.19;5112782;28;20051;-62
2021/09/29 07:26:25;;;;;;;15.27;6.30;;;;;;;15.78;61.60;101570.31;5096644;28;20126;-62
2021/09/29 07:28:52;;;;;;;11.07;5.37;;;;;;;15.96;61.02;101574.41;5112828;28;20124;-62
2021/09/29 07:31:19;;;;;;;9.80;5.97;;;;;;;16.16;60.90;101577.09;5094954;28;20130;-62
2021/09/29 07:33:46;;;;;;;9.70;6.03;;;;;;;16.26;60.85;101576.19;5094187;28;20051;-62
2021/09/29 07:36:13;;;;;;;14.37;5.77;;;;;;;16.20;60.50;101555.63;5095318;28;20079;-61
2021/09/29 07:38:40;;;;;;;14.63;5.43;;;;;;;16.43;60.51;101570.13;5095138;28;20040;-61
2021/09/29 07:41:08;;;;;;;10.45;5.55;;;;;;;16.64;60.07;101573.59;5098139;28;20123;-63
2021/09/29 07:43:35;;;;;;;12.35;5.60;;;;;;;16.71;59.84;101569.28;5115017;28;20075;-62
2021/09/29 07:46:02;;;;;;;11.52;4.60;;;;;;;16.41;59.76;101513.19;5103636;28;20131;-61
2021/09/29 07:48:29;;;;;;;11.70;4.53;;;;;;;17.11;59.39;101581.31;5098635;28;20076;-62
2021/09/29 07:50:56;;;;;;;10.18;4.20;;;;;;;17.36;58.85;101580.16;5113202;28;20158;-62
2021/09/29 07:53:25;;;;;;;11.00;4.38;;;;;;;17.68;58.75;101576.63;5103401;28;20142;-62
2021/09/29 07:55:53;;;;;;;14.93;5.35;;;;;;;18.06;58.14;101573.84;5095091;28;20048;-62
2021/09/29 07:58:26;;;;;;;13.23;4.10;;;;;;;18.51;57.49;101571.41;5113956;27;20047;-62
2021/09/29 08:00:54;;;;;;;5.57;3.80;;;;;;;18.89;56.57;101582.66;5135542;27;20078;-62
2021/09/29 08:03:21;;;;;;;9.15;3.47;;;;;;;19.13;56.01;101591.78;5108115;28;20044;-62
2021/09/29 08:05:48;;;;;;;8.05;3.95;;;;;;;19.52;55.05;101570.63;5113789;28;20100;-62
2021/09/29 08:08:15;;;;;;;7.05;3.47;;;;;;;19.99;54.60;101585.44;5095115;28;20557;-62
2021/09/29 08:10:41;;;;;;;9.88;3.63;;;;;;;20.34;53.96;101585.75;5114493;28;20138;-62
2021/09/29 08:13:08;;;;;;;6.60;3.58;;;;;;;20.72;53.52;101574.03;5096495;28;20130;-62
2021/09/29 08:15:35;;;;;;;11.02;4.75;;;;;;;21.15;52.77;101588.44;5094490;28;20044;-62
2021/09/29 08:18:02;;;;;;;4.85;3.08;;;;;;;21.39;51.85;101564.50;5094673;28;20142;-62
2021/09/29 08:20:33;;;;;;;15.10;3.97;;;;;;;22.05;51.23;101585.22;5103276;28;20047;-62
2021/09/29 08:30:48;;;;;;;6.45;3.80;;;;;;;24.18;47.21;101583.50;5095745;28;20075;-62
2021/09/29 08:33:31;;;;;;;8.48;3.47;;;;;;;24.58;46.61;101578.13;5094350;28;20044;-62
2021/09/29 08:38:49;;;;;;;8.40;3.80;;;;;;;25.47;44.30;101571.91;5096384;28;20484;-63
2021/09/29 08:44:13;;;;;;;8.75;3.42;;;;;;;26.11;42.94;101567.41;5104390;27;20148;-62
2021/09/29 08:54:17;;;;;;;5.15;2.03;;;;;;;27.40;38.56;101585.41;5108993;28;20134;-62
2021/09/29 09:18:15;;;;;;;;;;;;;;;28.91;37.28;101596.22;5107453;28;20520;-64
2021/09/29 09:20:51;;;;;;;3.88;1.70;;;;;;;29.39;34.61;101595.88;5113552;28;19924;-63
2021/09/29 09:23:18;;;;;;;4.88;2.42;;;;;;;29.56;34.90;101600.28;5112524;28;20159;-64
2021/09/29 09:25:45;;;;;;;6.88;2.45;;;;;;;29.59;34.28;101609.00;5113345;28;20139;-64
2021/09/29 09:28:26;;;;;;;8.00;3.05;;;;;;;29.23;34.62;101581.63;5112688;28;20043;-64
2021/09/29 09:30:57;;;;;;;8.48;2.45;;;;;;;29.26;34.55;101598.13;5108491;28;20471;-63
2021/09/29 09:33:26;;;;;;;9.27;3.47;;;;;;;29.56;34.15;101597.41;5093578;28;20058;-63
2021/09/29 09:35:57;;;;;;;6.93;3.30;;;;;;;29.70;33.78;101595.63;5113654;28;20130;-64
2021/09/29 09:38:25;;;;;;;11.00;2.55;;;;;;;29.99;33.16;101605.53;5110129;28;20175;-63
2021/09/29 09:40:57;;;;;;;6.65;2.70;;;;;;;30.29;33.19;101589.50;5086143;28;20127;-65
2021/09/29 09:43:29;;;;;;;8.75;2.40;;;;;;;29.83;33.41;101593.34;5092779;28;20079;-63
2021/09/29 09:45:58;;;;;;;7.85;2.55;;;;;;;30.06;33.03;101589.59;5095300;28;20131;-63
2021/09/29 09:48:27;;;;;;;7.15;2.53;;;;;;;30.49;32.43;101582.34;5097162;28;20530;-62
2021/09/29 09:51:03;;;;;;;6.80;2.75;;;;;;;30.90;32.25;101589.03;5106973;28;20127;-63
2021/09/29 09:53:31;;;;;;;4.85;2.08;;;;;;;31.28;32.08;101591.88;5092581;28;20499;-63
2021/09/29 09:55:58;;;;;;;4.28;1.90;;;;;;;31.49;31.32;101588.38;5104056;28;20226;-63
2021/09/29 09:58:25;;;;;;;7.93;3.00;;;;;;;31.94;30.76;101607.34;5094262;28;20126;-63
2021/09/29 10:00:59;;;;;;;4.57;1.80;;;;;;;32.08;30.51;101586.38;5112934;28;20131;-63
2021/09/29 10:03:27;;;;;;;6.35;2.35;;;;;;;32.23;29.90;101587.28;5111016;28;20055;-63
2021/09/29 10:05:54;;;;;;;4.15;1.92;;;;;;;32.51;29.44;101589.50;5112734;28;20408;-63
2021/09/29 10:08:28;;;;;;;5.95;1.95;;;;;;;32.72;29.86;101592.50;5108291;28;20071;-62
2021/09/29 10:27:16;;;;;;;5.13;1.60;;;;;;;33.87;28.47;101592.63;5092142;28;20130;-62
2021/09/29 10:29:59;;;;;;;5.43;1.45;;;;;;;33.69;28.99;101592.66;5092084;28;20056;-63
2021/09/29 10:32:28;;;;;;;2.00;1.20;;;;;;;33.69;27.99;101583.97;5074221;28;20127;-61
2021/09/29 10:35:45;;;;;;;;;;;;;;;33.29;30.75;101577.31;5101719;28;20043;-62
2021/09/29 10:43:05;;;;;;;5.20;1.05;;;;;;;33.62;28.29;101583.97;5102403;28;20138;-62
2021/09/29 11:33:45;;;;;;;2.60;1.63;;;;;;;34.52;26.88;101565.13;5108949;28;20062;-65
2021/09/29 12:09:16;;;;;;;8.05;2.50;;;;;;;40.03;20.49;101541.59;5103603;27;20122;-64
2021/09/29 12:11:55;;;;;;;4.63;2.25;;;;;;;40.23;20.14;101539.34;5113401;28;20054;-64
2021/09/29 12:14:24;;;;;;;;;;;;;;;41.77;20.58;101536.44;5115088;28;20086;-64
2021/09/29 12:16:51;;;;;;;3.30;1.40;;;;;;;40.76;19.91;101535.28;5109093;27;19942;-64
2021/09/29 12:19:34;;;;;;;3.67;1.70;;;;;;;40.46;20.30;101517.75;5107220;28;20143;-64
2021/09/29 12:22:05;;;;;;;4.10;1.90;;;;;;;40.42;19.77;101504.53;5102284;28;20570;-64
2021/09/29 12:24:39;;;;;;;4.22;1.92;;;;;;;40.48;20.14;101514.34;5112049;28;20066;-65
2021/09/29 12:27:07;;;;;;;5.97;1.80;;;;;;;41.13;19.40;101513.97;5107919;28;20126;-65
2021/09/29 12:29:49;;;;;;;4.07;1.53;;;;;;;41.55;19.16;101504.97;5114967;28;20055;-64
2021/09/29 12:37:54;;;;;;;8.15;2.33;;;;;;;40.73;20.46;101502.69;5096136;28;20131;-64
2021/09/29 12:40:23;;;;;;;12.20;2.92;;;;;;;41.11;20.12;101498.13;5094960;28;20060;-64
2021/09/29 12:43:05;;;;;;;7.40;2.15;;;;;;;41.17;19.98;101491.19;5107221;28;20054;-64
2021/09/29 12:45:37;;;;;;;7.18;2.38;;;;;;;41.18;20.20;101480.28;5094012;28;20109;-64
2021/09/29 12:48:07;;;;;;;6.97;1.73;;;;;;;41.83;19.33;101490.53;5094322;28;20434;-64
2021/09/29 12:50:52;;;;;;;6.15;1.75;;;;;;;42.31;18.85;101477.41;5110189;28;20130;-63
2021/09/29 12:54:07;;;;;;;10.43;2.72;;;;;;;42.32;18.92;101481.16;5110043;28;20043;-63
2021/09/29 12:56:16;;;;;;;6.72;2.13;;;;;;;42.45;18.76;101484.00;5085993;28;20118;-64
2021/09/29 12:58:44;;;;;;;6.72;2.22;;;;;;;42.59;19.14;101471.66;5112789;27;20071;-63
2021/09/29 13:01:11;;;;;;;4.53;2.13;;;;;;;42.85;18.69;101459.72;5094806;28;20143;-65
2021/09/29 13:03:38;;;;;;;6.53;2.45;;;;;;;42.32;19.04;101475.28;5110863;27;20104;-63
2021/09/29 13:06:06;;;;;;;7.15;2.38;;;;;;;42.34;19.18;101466.81;5110973;28;20078;-63
2021/09/29 13:08:33;;;;;;;7.32;2.35;;;;;;;41.43;19.48;101450.13;5109358;28;20047;-63
2021/09/29 13:11:00;;;;;;;8.43;1.63;;;;;;;38.07;22.17;101419.66;5109846;28;20094;-63
2021/09/29 13:13:30;;;;;;;9.63;1.85;;;;;;;35.48;24.74;101443.72;5109224;28;20333;-63
2021/09/29 13:16:00;;;;;;;9.85;1.80;;;;;;;33.59;27.50;101440.81;5093425;28;20488;-63
2021/09/29 13:18:43;;;;;;;9.60;1.83;;;;;;;32.14;29.04;101430.75;5093557;28;20511;-63
2021/09/29 13:21:51;;;;;;;5.93;2.28;;;;;;;30.75;30.98;101428.63;5098757;27;20135;-63
2021/09/29 13:26:54;;;;;;;9.00;1.92;;;;;;;28.67;34.15;101427.00;5100163;28;20044;-64
2021/09/29 13:37:37;;;;;;;9.68;2.30;;;;;;;26.94;37.59;101410.16;5093420;28;20048;-63
2021/09/29 13:40:06;;;;;;;12.82;2.97;;;;;;;26.61;38.39;101402.75;5075213;28;20132;-63
2021/09/29 13:42:34;;;;;;;7.03;2.78;;;;;;;26.27;38.67;101369.09;5092810;28;20054;-63
2021/09/29 13:45:01;;;;;;;13.35;2.00;;;;;;;26.01;39.57;101379.00;5092767;28;20408;-64
2021/09/29 13:47:28;;;;;;;9.60;2.15;;;;;;;25.92;40.32;101404.13;5098706;28;20131;-64
2021/09/29 13:49:54;;;;;;;9.82;2.17;;;;;;;25.79;40.75;101388.16;5092940;28;20119;-64
2021/09/29 13:52:24;;;;;;;6.32;2.15;;;;;;;25.59;41.55;101393.72;5098421;28;20131;-64
2021/09/29 13:54:55;;;;;;;10.73;2.50;;;;;;;25.52;41.45;101390.63;5129019;27;20046;-65
2021/09/29 13:57:37;;;;;;;6.13;1.80;;;;;;;25.23;42.21;101372.63;5120628;27;20139;-64
2021/09/29 14:00:22;;;;;;;8.55;1.50;;;;;;;25.17;42.76;101368.34;5093414;28;20079;-64
2021/09/29 14:30:34;;;;;;;7.85;2.50;;;;;;;24.30;46.11;101355.19;5110713;28;20074;-63
2021/09/29 14:33:06;;;;;;;5.80;2.10;;;;;;;24.38;46.08;101369.75;5112377;28;20039;-63
2021/09/29 14:35:33;;;;;;;10.50;3.20;;;;;;;24.30;46.54;101342.94;5098608;28;20136;-63
2021/09/29 14:38:00;;;;;;;7.88;1.77;;;;;;;24.21;47.07;101342.25;5101995;28;20495;-63
2021/09/29 14:40:27;;;;;;;7.57;1.98;;;;;;;24.24;47.18;101355.78;5100763;28;20539;-63
2021/09/29 14:42:54;;;;;;;6.60;1.95;;;;;;;24.34;46.62;101355.31;5104185;28;20515;-66